createdAt,value
2019-04-22T00:00:56.225Z,10.9
2019-04-22T00:07:08.280Z,10.8
2019-04-22T00:12:33.946Z,10.8
2019-04-22T00:17:53.154Z,10.8
2019-04-22T00:22:44.210Z,10.7
2019-04-22T00:27:54.735Z,10.7
2019-04-22T00:32:41.578Z,10.6
2019-04-22T00:38:02.077Z,10.7
2019-04-22T00:43:04.771Z,10.6
2019-04-22T00:48:32.044Z,10.5
2019-04-22T00:53:08.417Z,10.5
2019-04-22T00:58:23.884Z,10.4
2019-04-22T01:03:33.986Z,10.3
2019-04-22T01:08:38.853Z,10.5
2019-04-22T01:13:24.570Z,10.4
2019-04-22T01:18:27.746Z,10.4
2019-04-22T01:23:23.363Z,10.4
2019-04-22T01:28:10.743Z,10.3
2019-04-22T01:32:43.794Z,10.1
2019-04-22T01:38:36.113Z,9.9
2019-04-22T01:44:14.146Z,9.7
2019-04-22T01:49:07.606Z,9.5
2019-04-22T01:54:11.951Z,9.5
2019-04-22T01:58:54.070Z,9.5
2019-04-22T02:04:25.416Z,9.4
2019-04-22T02:09:42.513Z,9.4
2019-04-22T02:14:26.729Z,9.4
2019-04-22T02:19:52.926Z,9.3
2019-04-22T02:24:39.459Z,9.3
2019-04-22T02:29:51.464Z,9.3
2019-04-22T02:35:10.625Z,9.2
2019-04-22T02:39:54.701Z,9.1
2019-04-22T02:44:57.490Z,9
2019-04-22T03:00:29.045Z,9.1
2019-04-22T03:05:36.241Z,9.1
2019-04-22T03:10:36.925Z,9
2019-04-22T03:15:11.389Z,8.9
2019-04-22T03:20:49.861Z,8.7
2019-04-22T03:31:02.892Z,8.6
2019-04-22T03:35:40.994Z,8.6
2019-04-22T03:40:45.967Z,8.6
2019-04-22T03:46:00.618Z,8.6
2019-04-22T03:51:56.438Z,8.6
2019-04-22T03:56:36.365Z,8.7
2019-04-22T04:08:14.403Z,8.7
2019-04-22T04:13:16.653Z,8.6
2019-04-22T04:18:46.363Z,8.6
2019-04-22T04:24:00.527Z,8.6
2019-04-22T04:29:02.081Z,8.9
2019-04-22T04:38:59.845Z,9.2
2019-04-22T04:44:34.021Z,9.2
2019-04-22T04:54:21.170Z,9.5
2019-04-22T05:04:25.243Z,9.9
2019-04-22T05:19:30.544Z,11.2
2019-04-22T05:24:34.272Z,11.8
2019-04-22T05:29:16.818Z,12.2
2019-04-22T05:34:33.266Z,12.7
2019-04-22T05:39:28.110Z,13.2
2019-04-22T05:44:29.261Z,13.7
2019-04-22T05:49:47.275Z,14
2019-04-22T05:54:38.351Z,14.4
2019-04-22T05:59:58.694Z,14.8
2019-04-22T06:04:58.113Z,15.1
2019-04-22T06:10:09.576Z,15.6
2019-04-22T06:15:03.273Z,16.2
2019-04-22T06:20:08.641Z,16.8
2019-04-22T06:25:36.510Z,17.3
2019-04-22T06:30:20.439Z,17.9
2019-04-22T06:45:33.606Z,19.1
2019-04-22T06:50:47.393Z,19.3
2019-04-22T07:00:41.435Z,19.9
2019-04-22T07:05:46.192Z,20.6
2019-04-22T07:10:54.566Z,21.3
2019-04-22T07:16:18.220Z,21.7
2019-04-22T07:21:05.795Z,22.2
2019-04-22T07:26:44.694Z,22.8
2019-04-22T07:31:15.459Z,22.4
2019-04-22T07:37:08.434Z,23.6
2019-04-22T07:41:31.570Z,25
2019-04-22T07:47:04.376Z,25.8
2019-04-22T07:51:49.311Z,27.2
2019-04-22T07:56:59.511Z,28.8
2019-04-22T08:02:01.771Z,30.1
2019-04-22T08:07:12.215Z,31.4
2019-04-22T08:12:33.057Z,32.2
2019-04-22T08:17:38.306Z,34.8
2019-04-22T08:22:25.320Z,37.1
2019-04-22T08:27:34.957Z,32.2
2019-04-22T08:32:21.541Z,29.2
2019-04-22T08:43:03.916Z,31.1
2019-04-22T08:48:07.377Z,32.1
2019-04-22T08:52:40.429Z,33
2019-04-22T09:03:15.716Z,33.9
2019-04-22T09:08:13.559Z,34.1
2019-04-22T09:13:19.997Z,34.3
2019-04-22T09:18:40.812Z,34.5
2019-04-22T09:28:37.499Z,33.2
2019-04-22T09:33:36.667Z,34.2
2019-04-22T09:38:46.388Z,36.6
2019-04-22T09:43:46.627Z,39.1
2019-04-22T09:54:05.387Z,41.4
2019-04-22T09:59:02.053Z,40.5
2019-04-22T10:04:06.117Z,38.3
2019-04-22T10:10:14.880Z,38.9
2019-04-22T10:14:30.601Z,39
2019-04-22T10:19:29.347Z,38.9
2019-04-22T10:24:38.608Z,37.4
2019-04-22T10:34:16.581Z,32.3
2019-04-22T10:38:30.569Z,31.4
2019-04-22T10:43:39.143Z,30.7
2019-04-22T10:48:37.655Z,28.8
2019-04-22T10:53:44.839Z,26.1
2019-04-22T10:58:53.984Z,24.1
2019-04-22T11:04:03.742Z,22.8
2019-04-22T11:09:14.208Z,21.6
2019-04-22T11:19:19.388Z,20.4
2019-04-22T11:24:24.686Z,20
2019-04-22T11:29:23.713Z,20.2
2019-04-22T11:34:29.052Z,20.5
2019-04-22T11:39:40.714Z,20.9
2019-04-22T11:44:48.579Z,21.1
2019-04-22T11:49:47.936Z,21
2019-04-22T11:54:52.878Z,20.3
2019-04-22T12:00:03.252Z,20.8
2019-04-22T12:05:07.945Z,20.8
2019-04-22T12:10:37.668Z,21.4
2019-04-22T12:15:08.472Z,20.8
2019-04-22T12:20:20.131Z,20.6
2019-04-22T12:25:54.048Z,20.2
2019-04-22T12:30:25.581Z,20.2
2019-04-22T12:35:34.577Z,19.9
2019-04-22T12:40:58.910Z,19.5
2019-04-22T12:45:44.715Z,19.6
2019-04-22T12:51:00.732Z,19.3
2019-04-22T12:55:53.748Z,19.3
2019-04-22T13:00:56.906Z,19.2
2019-04-22T13:06:01.560Z,18.9
2019-04-22T13:11:20.165Z,18.9
2019-04-22T13:16:08.972Z,19.3
2019-04-22T13:21:10.806Z,19.3
2019-04-22T13:26:21.101Z,19.2
2019-04-22T13:32:32.331Z,19.5
2019-04-22T13:36:32.895Z,19.4
2019-04-22T13:41:54.456Z,19.2
2019-04-22T13:47:19.535Z,19.4
2019-04-22T13:59:33.139Z,19.8
2019-04-22T14:07:10.580Z,20.4
2019-04-22T14:12:16.181Z,20.8
2019-04-22T14:17:20.927Z,20.7
2019-04-22T14:22:20.013Z,20.5
2019-04-22T14:27:56.279Z,20.3
2019-04-22T14:32:37.942Z,20.4
2019-04-22T14:37:38.489Z,20.4
2019-04-22T14:43:47.579Z,20.2
2019-04-22T14:49:02.487Z,19.7
2019-04-22T14:54:00.718Z,19.4
2019-04-22T14:57:55.027Z,19.2
2019-04-22T15:03:03.794Z,19.1
2019-04-22T15:08:04.430Z,19.1
2019-04-22T15:13:13.421Z,19.1
2019-04-22T15:18:11.211Z,19.3
2019-04-22T15:23:20.261Z,19.4
2019-04-22T15:28:29.205Z,19.3
2019-04-22T15:33:32.996Z,19.2
2019-04-22T15:38:32.190Z,19.1
2019-04-22T15:43:41.550Z,18.9
2019-04-22T15:48:51.738Z,18.8
2019-04-22T15:53:51.902Z,18.7
2019-04-22T15:58:51.311Z,18.6
2019-04-22T16:04:00.752Z,18.5
2019-04-22T16:09:11.029Z,18.3
2019-04-22T16:14:10.537Z,18.2
2019-04-22T16:19:19.025Z,18
2019-04-22T16:24:27.732Z,17.9
2019-04-22T16:29:35.433Z,17.7
2019-04-22T16:34:43.379Z,17.7
2019-04-22T16:39:56.618Z,17.6
2019-04-22T16:44:55.432Z,17.5
2019-04-22T16:50:05.718Z,17.4
2019-04-22T16:55:08.970Z,17.3
2019-04-22T17:00:11.064Z,17.2
2019-04-22T17:05:20.887Z,17.1
2019-04-22T17:10:29.007Z,17
2019-04-22T17:15:37.545Z,16.9
2019-04-22T17:25:52.458Z,16.7
2019-04-22T17:31:01.877Z,16.6
2019-04-22T17:36:10.155Z,16.5
2019-04-22T17:42:13.887Z,16.4
2019-04-22T17:47:19.938Z,16.3
2019-04-22T17:52:41.872Z,16.2
2019-04-22T17:57:35.375Z,16.2
2019-04-22T18:02:31.990Z,16.2
2019-04-22T18:08:02.032Z,16
2019-04-22T18:12:58.462Z,15.7
2019-04-22T18:18:04.895Z,15.6
2019-04-22T18:22:35.554Z,15.4
2019-04-22T18:28:23.256Z,15.3
2019-04-22T18:32:37.755Z,15.2
2019-04-22T18:37:53.297Z,15.1
2019-04-22T18:42:52.186Z,15.1
2019-04-22T18:47:52.661Z,15
2019-04-22T18:53:10.809Z,14.9
2019-04-22T18:57:50.223Z,14.8
2019-04-22T19:02:27.082Z,14.7
2019-04-22T19:08:42.850Z,14.6
2019-04-22T19:24:03.872Z,14.3
2019-04-22T19:29:05.405Z,14.1
2019-04-22T19:34:02.840Z,14
2019-04-22T19:38:49.608Z,13.9
2019-04-22T19:44:08.038Z,13.8
2019-04-22T19:49:45.216Z,13.7
2019-04-22T19:54:35.587Z,13.7
2019-04-22T19:59:01.943Z,13.6
2019-04-22T20:04:52.289Z,13.4
2019-04-22T20:09:34.906Z,13.4
2019-04-22T20:14:39.811Z,13.2
2019-04-22T20:19:55.138Z,13.1
2019-04-22T20:21:56.400Z,13.1
2019-04-22T20:26:56.013Z,13
2019-04-22T20:32:10.370Z,12.9
2019-04-22T20:37:56.554Z,12.8
2019-04-22T20:42:16.295Z,12.7
2019-04-22T20:47:13.371Z,12.7
2019-04-22T20:52:38.030Z,12.6
2019-04-22T20:57:12.904Z,12.5
2019-04-22T21:02:23.403Z,12.4
2019-04-22T21:07:30.905Z,12.4
2019-04-22T21:12:33.594Z,12.3
2019-04-22T21:17:50.823Z,12.2
2019-04-22T21:22:59.775Z,12.2
2019-04-22T21:28:09.449Z,12.1
2019-04-22T21:33:06.534Z,12
2019-04-22T21:38:26.256Z,12
2019-04-22T21:43:18.111Z,11.8
2019-04-22T21:48:46.005Z,11.8
2019-04-22T21:58:50.452Z,11.6
2019-04-22T22:03:47.522Z,11.6
2019-04-22T22:07:51.969Z,11.5
2019-04-22T22:13:49.988Z,11.4
2019-04-22T22:18:28.895Z,11.4
2019-04-22T22:24:08.540Z,11.3
2019-04-22T22:29:16.879Z,11.2
2019-04-22T22:33:50.994Z,11.2
2019-04-22T22:38:58.287Z,11.1
2019-04-22T22:43:34.932Z,11.1
2019-04-22T22:49:46.815Z,11
2019-04-22T22:54:38.775Z,10.9
2019-04-22T22:59:32.728Z,10.9
2019-04-22T23:04:39.236Z,10.8
2019-04-22T23:09:36.279Z,10.8
2019-04-22T23:14:36.567Z,10.8
2019-04-22T23:18:34.068Z,10.7
2019-04-22T23:24:43.631Z,10.7
2019-04-22T23:29:26.818Z,10.6
2019-04-22T23:34:42.686Z,10.6
2019-04-22T23:40:21.625Z,10.5
2019-04-22T23:45:13.512Z,10.5
2019-04-22T23:49:55.998Z,10.4
2019-04-22T23:55:20.242Z,10.3
